Terminal Aerodrome Forecast
Issued by NWS Charleston, WV

Current Version | Previous Version | Graphics & Text | Print | Product List | Glossary On
Versions: 1 2 3 4 5 6 7 8 9 10 11 12 13 14 15 16 17 18 19 20 21 22 23 24 25 26 27 28 29
000
FTUS41 KRLX 251000 AAB
TAFCRW
TAF AMD
KCRW 251037Z 2511/2606 00000KT 1SM BR SCT001 BKN006
     FM251200 VRB03KT 2SM BR OVC010
     FM251300 VRB03KT 4SM HZ SCT015
      TEMPO 2513/2514 BKN010
     FM251500 VRB03KT P6SM SKC
     FM251700 VRB03KT P6SM SCT045
     FM252300 VRB03KT P6SM SCT250=

USA.gov is the U.S. government's official web portal to all federal, state and local government web resources and services.